Time;durP1;ratioP1;P1;durP2;ratioP2;P2;SDS_P1;SDS_P2;PMS_P1;PMS_P2;Temp;Humidity;BMP_temperature;BMP_pressure;BME280_temperature;BME280_humidity;BME280_pressure;Samples;Min_cycle;Max_cycle;Signal;HPM_P1;HPM_P2
2022/07/09 00:00:07;;;;;;;10.98;3.80;;;18.70;99.90;;;;;;5133337;27;20168;-53
2022/07/09 00:02:34;;;;;;;7.43;3.65;;;18.70;99.90;;;;;;5133613;27;20195;-52
2022/07/09 00:05:00;;;;;;;12.10;3.55;;;18.60;99.90;;;;;;5133888;27;20203;-52
2022/07/09 00:07:26;;;;;;;8.70;3.63;;;18.60;99.90;;;;;;5133409;27;20168;-52
2022/07/09 00:09:52;;;;;;;11.10;3.75;;;18.60;99.90;;;;;;5133290;27;20527;-53
2022/07/09 00:12:18;;;;;;;11.68;3.25;;;18.60;99.90;;;;;;5133224;27;20184;-53
2022/07/09 00:14:44;;;;;;;10.07;3.75;;;18.60;99.90;;;;;;5132860;27;20216;-53
2022/07/09 00:17:09;;;;;;;7.88;3.92;;;18.60;99.90;;;;;;5133149;27;20163;-52
2022/07/09 00:19:35;;;;;;;12.15;3.65;;;18.60;99.90;;;;;;5132932;27;20163;-53
2022/07/09 00:22:02;;;;;;;10.43;3.92;;;18.60;99.90;;;;;;5133676;27;20156;-53
2022/07/09 00:24:27;;;;;;;9.73;4.20;;;18.60;99.90;;;;;;5133275;27;20178;-52
2022/07/09 00:26:53;;;;;;;7.43;3.70;;;18.60;99.90;;;;;;5132837;27;20199;-52
2022/07/09 00:29:18;;;;;;;10.95;4.22;;;18.50;99.90;;;;;;5133038;27;20168;-53
2022/07/09 00:31:45;;;;;;;13.65;4.18;;;18.60;99.90;;;;;;5132861;27;20644;-53
2022/07/09 00:34:12;;;;;;;8.57;4.18;;;18.60;99.90;;;;;;5132586;27;20187;-53
2022/07/09 00:36:37;;;;;;;12.45;4.70;;;18.50;99.90;;;;;;5133149;27;20160;-53
2022/07/09 00:39:03;;;;;;;8.68;3.80;;;18.60;99.90;;;;;;5133171;28;20172;-53
2022/07/09 00:41:29;;;;;;;5.80;3.30;;;18.50;99.90;;;;;;5132943;27;20520;-52
2022/07/09 00:43:54;;;;;;;8.82;3.78;;;18.60;99.90;;;;;;5132886;28;20168;-52
2022/07/09 00:46:20;;;;;;;8.88;3.78;;;18.60;99.90;;;;;;5132826;28;20513;-53
2022/07/09 00:48:46;;;;;;;10.50;4.25;;;18.50;99.90;;;;;;5133087;28;20168;-53
2022/07/09 00:51:13;;;;;;;13.68;4.35;;;18.50;99.90;;;;;;5132641;28;20231;-53
2022/07/09 00:53:39;;;;;;;9.98;3.70;;;18.40;99.90;;;;;;5132960;27;20215;-52
2022/07/09 00:56:05;;;;;;;13.98;4.45;;;18.20;99.90;;;;;;5132763;28;20160;-53
2022/07/09 00:58:31;;;;;;;7.13;4.03;;;18.20;99.90;;;;;;5133057;27;20213;-53
2022/07/09 01:00:58;;;;;;;8.02;4.80;;;18.30;99.90;;;;;;5132710;27;20209;-53
2022/07/09 01:03:23;;;;;;;7.15;4.72;;;18.20;99.90;;;;;;5132640;27;20183;-53
2022/07/09 01:05:49;;;;;;;11.73;5.15;;;18.20;99.90;;;;;;5132588;28;20164;-53
2022/07/09 01:08:15;;;;;;;8.50;4.22;;;18.20;99.90;;;;;;5132609;28;20165;-53
2022/07/09 01:10:41;;;;;;;6.85;4.32;;;18.10;99.90;;;;;;5135135;27;20168;-53
2022/07/09 01:13:07;;;;;;;8.80;5.30;;;18.00;99.90;;;;;;5136533;27;20203;-53
2022/07/09 01:15:33;;;;;;;8.30;4.70;;;18.00;99.90;;;;;;5136687;27;20532;-53
2022/07/09 01:17:59;;;;;;;8.20;4.75;;;18.00;99.90;;;;;;5137108;27;20202;-53
2022/07/09 01:20:26;;;;;;;8.13;4.63;;;18.00;99.90;;;;;;5136785;27;20582;-53
2022/07/09 01:22:52;;;;;;;9.48;4.82;;;18.00;99.90;;;;;;5136744;27;20168;-52
2022/07/09 01:25:19;;;;;;;10.70;4.63;;;17.90;99.90;;;;;;5136365;27;20686;-53
2022/07/09 01:27:46;;;;;;;8.98;5.18;;;17.90;99.90;;;;;;5136707;27;20217;-53
2022/07/09 01:30:22;;;;;;;6.90;4.82;;;17.90;99.90;;;;;;5136286;27;20170;-53
2022/07/09 01:32:48;;;;;;;10.18;4.80;;;17.90;99.90;;;;;;5134691;27;20580;-53
2022/07/09 01:35:14;;;;;;;9.40;5.05;;;17.90;99.90;;;;;;5135966;27;20156;-52
2022/07/09 01:37:39;;;;;;;6.97;5.43;;;18.00;99.90;;;;;;5136088;27;20505;-53
2022/07/09 01:40:06;;;;;;;5.80;4.25;;;17.90;99.90;;;;;;5136127;27;20164;-52
2022/07/09 01:42:31;;;;;;;9.05;4.57;;;17.90;99.90;;;;;;5136299;27;20174;-52
2022/07/09 01:44:57;;;;;;;6.13;4.82;;;17.90;99.90;;;;;;5136029;27;20554;-53
2022/07/09 01:47:22;;;;;;;7.72;5.38;;;17.90;99.90;;;;;;5135910;27;20172;-52
2022/07/09 01:49:48;;;;;;;10.57;5.40;;;17.90;99.90;;;;;;5135922;27;20592;-52
2022/07/09 01:52:14;;;;;;;9.20;5.38;;;17.90;99.90;;;;;;5135786;27;20207;-53
2022/07/09 01:54:39;;;;;;;9.45;5.95;;;17.80;99.90;;;;;;5135819;27;20260;-52
2022/07/09 01:57:05;;;;;;;7.00;5.53;;;17.80;99.90;;;;;;5135760;27;20161;-53
2022/07/09 01:59:31;;;;;;;10.65;5.82;;;17.80;99.90;;;;;;5135983;27;20247;-52
2022/07/09 02:01:57;;;;;;;10.40;5.93;;;17.90;99.90;;;;;;5135790;27;20245;-53
2022/07/09 02:04:22;;;;;;;10.57;6.20;;;17.90;99.90;;;;;;5135843;27;20247;-52
2022/07/09 02:06:48;;;;;;;11.15;6.30;;;17.80;99.90;;;;;;5135544;27;20647;-53
2022/07/09 02:09:13;;;;;;;9.18;5.95;;;17.80;99.90;;;;;;5135532;27;20216;-52
2022/07/09 02:11:39;;;;;;;11.98;6.00;;;17.80;99.90;;;;;;5135390;27;20179;-52
2022/07/09 02:14:05;;;;;;;9.95;7.18;;;17.70;99.90;;;;;;5135438;27;20207;-53
2022/07/09 02:16:30;;;;;;;10.93;5.70;;;17.70;99.90;;;;;;5135596;27;20160;-53
2022/07/09 02:18:56;;;;;;;10.80;6.20;;;17.70;99.90;;;;;;5135414;27;20164;-53
2022/07/09 02:21:21;;;;;;;8.70;5.55;;;17.60;99.90;;;;;;5133840;27;20164;-53
2022/07/09 02:23:48;;;;;;;6.47;5.40;;;17.60;99.90;;;;;;5135288;27;20188;-53
2022/07/09 02:26:14;;;;;;;9.85;5.78;;;17.50;99.90;;;;;;5135085;27;20265;-52
2022/07/09 02:28:40;;;;;;;8.50;5.78;;;17.50;99.90;;;;;;5135159;27;20160;-52
2022/07/09 02:31:05;;;;;;;9.40;5.95;;;17.40;99.90;;;;;;5135121;27;20200;-52
2022/07/09 02:33:31;;;;;;;10.65;5.47;;;17.40;99.90;;;;;;5135491;27;20564;-52
2022/07/09 02:35:57;;;;;;;10.55;5.28;;;17.50;99.90;;;;;;5135042;27;20501;-52
2022/07/09 02:38:22;;;;;;;8.45;5.60;;;17.60;99.90;;;;;;5135068;27;20213;-52
2022/07/09 02:40:48;;;;;;;7.60;5.55;;;17.60;99.90;;;;;;5134936;27;20170;-52
2022/07/09 02:43:14;;;;;;;11.13;6.25;;;17.50;99.90;;;;;;5135227;27;20192;-52
2022/07/09 02:45:39;;;;;;;9.25;5.68;;;17.60;99.90;;;;;;5134868;27;20209;-52
2022/07/09 02:48:05;;;;;;;8.50;5.40;;;17.70;99.90;;;;;;5134765;27;20164;-52
2022/07/09 02:50:31;;;;;;;8.20;5.15;;;17.80;99.90;;;;;;5135036;27;20189;-52
2022/07/09 02:52:56;;;;;;;11.05;5.60;;;17.70;99.90;;;;;;5134619;27;20191;-52
2022/07/09 02:55:22;;;;;;;8.18;5.55;;;17.70;99.90;;;;;;5134350;27;20168;-53
2022/07/09 02:57:47;;;;;;;10.23;5.28;;;17.70;99.90;;;;;;5134585;27;20217;-53
2022/07/09 03:00:13;;;;;;;8.13;5.25;;;17.70;99.90;;;;;;5134579;27;20171;-53
2022/07/09 03:02:38;;;;;;;12.50;5.20;;;17.60;99.90;;;;;;5134414;27;20163;-53
2022/07/09 03:05:05;;;;;;;11.30;5.13;;;17.60;99.90;;;;;;5134463;27;20168;-53
2022/07/09 03:07:30;;;;;;;8.98;5.15;;;17.60;99.90;;;;;;5134714;27;20164;-53
2022/07/09 03:09:56;;;;;;;6.47;5.32;;;17.50;99.90;;;;;;5134409;27;20233;-53
2022/07/09 03:12:22;;;;;;;8.63;4.63;;;17.50;99.90;;;;;;5134200;27;20180;-53
2022/07/09 03:14:47;;;;;;;7.22;4.65;;;17.40;99.90;;;;;;5134057;27;20182;-53
2022/07/09 03:17:13;;;;;;;9.55;5.32;;;17.40;99.90;;;;;;5134241;27;20201;-53
2022/07/09 03:19:39;;;;;;;10.85;5.90;;;17.40;99.90;;;;;;5134253;27;20168;-53
2022/07/09 03:22:05;;;;;;;7.72;5.18;;;17.40;99.90;;;;;;5134125;27;20702;-53
2022/07/09 03:24:31;;;;;;;6.93;5.55;;;17.40;99.90;;;;;;5134642;27;20168;-53
2022/07/09 03:26:57;;;;;;;10.77;5.05;;;17.30;99.90;;;;;;5133817;27;20306;-52
2022/07/09 03:29:23;;;;;;;11.00;5.40;;;17.30;99.90;;;;;;5133993;27;20164;-53
2022/07/09 03:31:48;;;;;;;7.50;5.43;;;17.30;99.90;;;;;;5133439;27;20532;-53
2022/07/09 03:34:14;;;;;;;9.95;5.18;;;17.40;99.90;;;;;;5133759;27;20640;-53
2022/07/09 03:36:41;;;;;;;7.43;4.93;;;17.30;99.90;;;;;;5133744;27;20664;-53
2022/07/09 03:39:06;;;;;;;7.68;5.05;;;17.40;99.90;;;;;;5133881;27;20528;-53
2022/07/09 03:41:32;;;;;;;10.30;5.28;;;17.30;99.90;;;;;;5134050;27;20174;-53
2022/07/09 03:43:58;;;;;;;9.15;5.53;;;17.40;99.90;;;;;;5133622;27;20220;-53
2022/07/09 03:46:24;;;;;;;7.55;4.85;;;17.40;99.90;;;;;;5133891;27;20329;-53
2022/07/09 03:48:49;;;;;;;8.05;4.95;;;17.30;99.90;;;;;;5133772;27;20195;-53
2022/07/09 03:51:15;;;;;;;11.10;5.18;;;17.40;99.90;;;;;;5133782;27;20649;-53
2022/07/09 03:53:41;;;;;;;10.57;5.35;;;17.40;99.90;;;;;;5133111;27;20200;-53
2022/07/09 03:56:07;;;;;;;9.20;5.03;;;17.40;99.90;;;;;;5133475;27;20163;-53
2022/07/09 03:58:32;;;;;;;12.95;4.88;;;17.40;99.90;;;;;;5133890;27;20633;-53
2022/07/09 04:00:58;;;;;;;7.85;5.32;;;17.50;99.90;;;;;;5133316;27;20164;-52
2022/07/09 04:03:23;;;;;;;8.50;4.70;;;17.50;99.90;;;;;;5132786;27;20164;-52
2022/07/09 04:05:49;;;;;;;9.82;5.20;;;17.60;99.90;;;;;;5133276;27;20168;-52
2022/07/09 04:08:15;;;;;;;6.22;4.55;;;17.50;99.90;;;;;;5133380;27;20656;-52
2022/07/09 04:10:40;;;;;;;6.25;4.93;;;17.50;99.90;;;;;;5133404;27;20217;-52
2022/07/09 04:13:06;;;;;;;6.38;5.07;;;17.50;99.90;;;;;;5133145;27;20203;-52
2022/07/09 04:15:32;;;;;;;7.65;4.70;;;17.50;99.90;;;;;;5133773;27;20167;-52
2022/07/09 04:17:58;;;;;;;6.65;4.22;;;17.40;99.90;;;;;;5133551;27;20175;-52
2022/07/09 04:20:25;;;;;;;10.68;4.97;;;17.40;99.90;;;;;;5133188;27;20246;-52
2022/07/09 04:22:51;;;;;;;9.90;5.07;;;17.50;99.90;;;;;;5133348;27;20229;-52
2022/07/09 04:25:17;;;;;;;9.80;5.45;;;17.40;99.90;;;;;;5133131;27;20199;-52
2022/07/09 04:27:43;;;;;;;12.48;5.07;;;17.30;99.90;;;;;;5132897;27;20251;-52
2022/07/09 04:30:10;;;;;;;9.73;5.28;;;17.30;99.90;;;;;;5133020;27;20172;-52
2022/07/09 04:32:36;;;;;;;8.23;5.18;;;17.30;99.90;;;;;;5132975;27;20278;-53
2022/07/09 04:35:02;;;;;;;10.90;5.47;;;17.30;99.90;;;;;;5133282;27;20655;-52
2022/07/09 04:37:28;;;;;;;13.65;5.22;;;17.20;99.90;;;;;;5133180;27;20219;-52
2022/07/09 04:39:53;;;;;;;9.13;4.85;;;17.20;99.90;;;;;;5132743;28;20199;-52
2022/07/09 04:42:20;;;;;;;11.27;5.75;;;17.30;99.90;;;;;;5132626;28;20260;-52
2022/07/09 04:44:45;;;;;;;8.93;5.25;;;17.30;99.90;;;;;;5134211;27;20172;-52
2022/07/09 04:47:11;;;;;;;7.65;5.30;;;17.40;99.90;;;;;;5136970;27;20164;-52
2022/07/09 04:49:37;;;;;;;10.40;5.45;;;17.40;99.90;;;;;;5137024;27;20168;-52
2022/07/09 04:52:03;;;;;;;10.18;5.68;;;17.40;99.90;;;;;;5137265;27;20170;-52
2022/07/09 04:54:28;;;;;;;8.75;5.72;;;17.50;99.90;;;;;;5137223;27;20701;-52
2022/07/09 04:56:54;;;;;;;10.15;5.85;;;17.50;99.90;;;;;;5136990;27;20164;-52
2022/07/09 04:59:20;;;;;;;8.50;5.47;;;17.60;99.90;;;;;;5136863;27;20167;-52
2022/07/09 05:01:46;;;;;;;6.60;5.68;;;17.80;99.90;;;;;;5137192;27;20587;-52
2022/07/09 05:04:11;;;;;;;8.60;6.50;;;17.80;99.90;;;;;;5136921;27;20184;-52
2022/07/09 05:06:37;;;;;;;7.63;5.40;;;17.90;99.90;;;;;;5136960;27;20170;-52
2022/07/09 05:09:03;;;;;;;8.65;6.32;;;17.90;99.90;;;;;;5136976;27;20164;-52
2022/07/09 05:11:28;;;;;;;14.52;6.03;;;17.90;99.90;;;;;;5136955;27;20172;-52
2022/07/09 05:13:54;;;;;;;9.13;6.38;;;18.20;99.90;;;;;;5135035;27;20313;-52
2022/07/09 05:16:19;;;;;;;10.57;6.32;;;18.20;99.90;;;;;;5136552;27;20164;-53
2022/07/09 05:18:45;;;;;;;10.18;6.78;;;18.20;99.90;;;;;;5136534;27;20188;-53
2022/07/09 05:21:10;;;;;;;11.80;6.70;;;18.20;99.90;;;;;;5136220;27;20528;-52
2022/07/09 05:23:36;;;;;;;13.07;6.68;;;18.30;99.90;;;;;;5136133;27;20219;-52
2022/07/09 05:26:02;;;;;;;9.05;7.43;;;18.50;99.90;;;;;;5136252;27;20211;-52
2022/07/09 05:28:27;;;;;;;11.00;7.13;;;18.50;99.90;;;;;;5136067;27;20175;-52
2022/07/09 05:30:53;;;;;;;14.20;7.38;;;18.50;99.90;;;;;;5136026;27;20164;-52
2022/07/09 05:33:19;;;;;;;8.43;7.47;;;18.60;99.90;;;;;;5136210;27;20336;-52
2022/07/09 05:35:44;;;;;;;10.48;7.05;;;18.50;99.90;;;;;;5136482;27;20519;-52
2022/07/09 05:38:10;;;;;;;11.60;7.60;;;18.50;99.90;;;;;;5136192;27;20253;-53
2022/07/09 05:40:36;;;;;;;8.02;7.15;;;18.50;99.90;;;;;;5136370;27;20160;-53
2022/07/09 05:43:01;;;;;;;7.85;6.65;;;18.60;99.90;;;;;;5136413;27;20590;-52
2022/07/09 05:45:27;;;;;;;11.88;6.70;;;18.40;99.90;;;;;;5136282;27;20164;-53
2022/07/09 05:47:52;;;;;;;9.80;6.57;;;18.50;99.90;;;;;;5135916;27;20171;-53
2022/07/09 05:50:18;;;;;;;9.43;6.97;;;18.60;99.90;;;;;;5135869;27;20203;-53
2022/07/09 05:52:44;;;;;;;9.45;6.80;;;18.50;99.90;;;;;;5135877;27;20559;-53
2022/07/09 05:55:10;;;;;;;7.65;6.93;;;18.70;99.90;;;;;;5135855;27;20160;-53
2022/07/09 05:57:36;;;;;;;10.68;7.15;;;18.90;99.90;;;;;;5135842;27;20648;-53
2022/07/09 06:00:03;;;;;;;9.90;7.10;;;18.90;99.90;;;;;;5135906;27;20168;-53
2022/07/09 06:02:29;;;;;;;10.55;6.95;;;18.80;99.90;;;;;;5135981;27;20635;-53
2022/07/09 06:04:54;;;;;;;10.40;7.50;;;19.00;99.90;;;;;;5135680;27;20259;-53
2022/07/09 06:07:20;;;;;;;13.77;8.52;;;18.90;99.90;;;;;;5135437;27;20606;-53
2022/07/09 06:09:46;;;;;;;13.10;8.68;;;19.00;99.90;;;;;;5135535;27;20217;-53
2022/07/09 06:12:11;;;;;;;14.50;8.70;;;19.00;99.90;;;;;;5135375;27;20188;-53
2022/07/09 06:14:37;;;;;;;12.15;8.15;;;19.20;99.90;;;;;;5135473;27;20170;-53
2022/07/09 06:17:05;;;;;;;10.30;7.90;;;19.30;99.90;;;;;;5135433;27;20498;-53
2022/07/09 06:19:34;;;;;;;13.95;8.48;;;19.30;99.90;;;;;;5135299;27;20176;-53
2022/07/09 06:22:00;;;;;;;12.88;8.02;;;19.50;99.90;;;;;;5135891;27;20174;-53
2022/07/09 06:24:26;;;;;;;11.20;8.18;;;19.50;99.90;;;;;;5135219;27;20160;-53
2022/07/09 06:26:51;;;;;;;12.10;8.52;;;19.70;99.90;;;;;;5135109;27;20336;-53
2022/07/09 06:29:19;;;;;;;14.48;8.23;;;19.80;99.90;;;;;;5134347;27;20216;-53
2022/07/09 06:31:44;;;;;;;12.35;7.60;;;19.80;99.90;;;;;;5121327;27;20181;-53
2022/07/09 06:34:11;;;;;;;14.10;8.23;;;19.90;99.90;;;;;;5113094;28;20223;-53
2022/07/09 06:36:38;;;;;;;11.98;7.72;;;20.00;99.90;;;;;;5113573;28;20214;-53
2022/07/09 06:41:48;;;;;;;12.73;7.65;;;20.20;99.90;;;;;;5111630;28;20174;-53
2022/07/09 06:44:13;;;;;;;12.65;8.02;;;20.20;99.90;;;;;;5113289;28;20161;-53
2022/07/09 06:46:39;;;;;;;10.50;7.18;;;20.40;99.90;;;;;;5112726;28;20175;-53
2022/07/09 06:49:05;;;;;;;15.15;7.97;;;20.20;99.90;;;;;;5113182;28;20172;-53
2022/07/09 06:51:31;;;;;;;11.13;7.07;;;20.30;99.90;;;;;;5133710;27;20179;-53
2022/07/09 06:53:57;;;;;;;11.40;6.85;;;20.40;99.90;;;;;;5134669;27;20664;-53
2022/07/09 06:56:22;;;;;;;15.30;6.75;;;20.50;99.90;;;;;;5134537;27;20625;-53
2022/07/09 06:58:48;;;;;;;9.95;6.22;;;20.70;99.90;;;;;;5134430;27;20172;-54
2022/07/09 07:01:14;;;;;;;12.13;6.10;;;20.90;99.90;;;;;;5132283;27;20629;-54
2022/07/09 07:03:40;;;;;;;9.52;5.03;;;21.10;99.90;;;;;;5130713;27;20187;-54
2022/07/09 07:06:05;;;;;;;10.32;4.78;;;21.00;99.90;;;;;;5132992;27;20238;-54
2022/07/09 07:08:31;;;;;;;10.30;4.68;;;21.30;99.90;;;;;;5132534;27;20170;-54
2022/07/09 07:10:56;;;;;;;9.02;3.70;;;21.60;99.90;;;;;;5132969;27;20221;-54
2022/07/09 07:13:22;;;;;;;5.15;3.30;;;21.40;99.90;;;;;;5133123;27;20214;-54
2022/07/09 07:15:49;;;;;;;7.15;3.47;;;21.50;99.90;;;;;;5132761;27;20167;-53
2022/07/09 07:18:16;;;;;;;9.20;3.47;;;21.70;99.90;;;;;;5133043;27;20262;-58
2022/07/09 07:20:42;;;;;;;7.10;2.75;;;21.60;99.90;;;;;;5133072;27;20171;-58
2022/07/09 07:23:08;;;;;;;3.60;2.10;;;21.90;99.90;;;;;;5132740;27;20164;-57
2022/07/09 07:25:33;;;;;;;5.43;1.63;;;22.00;99.90;;;;;;5132297;27;20557;-57
2022/07/09 07:28:00;;;;;;;2.45;1.60;;;22.20;99.90;;;;;;5133100;27;20176;-57
2022/07/09 07:30:25;;;;;;;4.55;2.17;;;22.40;99.90;;;;;;5132529;27;20205;-57
2022/07/09 07:32:51;;;;;;;6.25;1.90;;;22.50;99.90;;;;;;5132555;27;20203;-57
2022/07/09 07:35:16;;;;;;;2.83;1.70;;;22.60;99.90;;;;;;5132457;27;20207;-57
2022/07/09 07:37:42;;;;;;;4.70;2.00;;;22.80;99.90;;;;;;5132357;27;20240;-57
2022/07/09 07:40:08;;;;;;;5.45;2.05;;;22.90;99.90;;;;;;5132419;27;20192;-57
2022/07/09 07:42:34;;;;;;;4.40;2.00;;;22.90;99.90;;;;;;5132397;27;20601;-58
2022/07/09 07:44:59;;;;;;;5.05;2.08;;;22.90;99.90;;;;;;5132645;27;20176;-57
2022/07/09 07:47:25;;;;;;;4.68;2.00;;;22.90;99.90;;;;;;5132146;27;20176;-57
2022/07/09 07:49:51;;;;;;;5.68;2.10;;;22.80;99.90;;;;;;5132166;27;20186;-57
2022/07/09 07:52:17;;;;;;;3.50;2.28;;;22.80;99.90;;;;;;5132307;27;20602;-57
2022/07/09 07:54:43;;;;;;;4.05;2.15;;;22.70;99.90;;;;;;5132445;27;20179;-57
2022/07/09 07:57:08;;;;;;;4.53;1.90;;;22.90;99.90;;;;;;5132647;27;20164;-58
2022/07/09 07:59:34;;;;;;;5.63;1.98;;;23.10;99.90;;;;;;5131909;27;20171;-58
2022/07/09 08:02:00;;;;;;;3.30;2.03;;;23.10;99.90;;;;;;5132362;27;20250;-57
2022/07/09 08:04:25;;;;;;;4.47;1.80;;;23.10;99.90;;;;;;5132219;27;20510;-53
2022/07/09 08:06:51;;;;;;;3.25;2.03;;;23.00;99.90;;;;;;5131951;27;20171;-56
2022/07/09 08:09:16;;;;;;;4.25;2.05;;;22.90;99.90;;;;;;5131827;27;20172;-53
2022/07/09 08:11:42;;;;;;;3.80;2.30;;;23.30;99.90;;;;;;5132043;27;20164;-57
2022/07/09 08:14:08;;;;;;;3.33;2.10;;;23.40;99.90;;;;;;5131889;27;20564;-61
2022/07/09 08:16:34;;;;;;;3.70;2.22;;;23.20;99.90;;;;;;5132147;27;20289;-58
2022/07/09 08:19:00;;;;;;;2.15;1.85;;;23.30;99.90;;;;;;5131279;27;20259;-55
2022/07/09 08:21:26;;;;;;;4.75;2.55;;;23.50;99.90;;;;;;5131698;27;20164;-63
2022/07/09 08:23:51;;;;;;;6.88;2.60;;;23.60;99.90;;;;;;5131774;27;20164;-64
2022/07/09 08:26:27;;;;;;;3.25;2.28;;;23.70;99.90;;;;;;5131393;27;20211;-56
2022/07/09 08:28:54;;;;;;;3.85;2.38;;;23.60;99.90;;;;;;5131897;27;20176;-54
2022/07/09 08:31:21;;;;;;;6.85;2.90;;;24.00;99.90;;;;;;5131942;27;20185;-54
2022/07/09 08:33:47;;;;;;;5.40;2.70;;;24.10;99.90;;;;;;5119956;27;20207;-54
2022/07/09 08:36:13;;;;;;;5.38;2.40;;;23.90;99.90;;;;;;5122360;28;20172;-53
2022/07/09 08:38:38;;;;;;;5.15;2.40;;;24.10;99.90;;;;;;5131421;27;20167;-54
2022/07/09 08:41:05;;;;;;;5.25;2.40;;;23.90;99.90;;;;;;5131522;28;20501;-54
2022/07/09 08:43:36;;;;;;;4.40;2.20;;;23.90;99.90;;;;;;5131884;27;20251;-54
2022/07/09 08:46:02;;;;;;;5.03;2.03;;;23.00;99.90;;;;;;5132065;27;20568;-54
2022/07/09 08:48:28;;;;;;;3.97;2.05;;;24.60;99.90;;;;;;5131493;27;20187;-54
2022/07/09 08:50:57;;;;;;;4.97;2.28;;;24.80;99.90;;;;;;5131418;27;20187;-54
2022/07/09 08:53:23;;;;;;;4.55;2.13;;;24.80;99.90;;;;;;5131316;27;20199;-54
2022/07/09 08:55:50;;;;;;;2.63;2.10;;;24.70;99.90;;;;;;5131414;28;20163;-54
2022/07/09 08:58:16;;;;;;;3.63;2.00;;;24.70;99.90;;;;;;5131372;27;20163;-54
2022/07/09 09:00:41;;;;;;;2.53;1.80;;;24.70;99.90;;;;;;5131320;28;20174;-54
2022/07/09 09:03:07;;;;;;;1.73;1.63;;;24.90;99.90;;;;;;5131557;28;20171;-54
2022/07/09 09:05:33;;;;;;;2.47;1.70;;;25.20;99.90;;;;;;5130343;27;20197;-54
2022/07/09 09:07:59;;;;;;;1.48;1.38;;;25.10;99.90;;;;;;5131605;28;20160;-54
2022/07/09 09:10:27;;;;;;;3.50;1.60;;;25.10;99.90;;;;;;5131209;28;20156;-54
2022/07/09 09:13:01;;;;;;;3.65;1.88;;;25.20;99.90;;;;;;5131375;27;20226;-54
2022/07/09 09:15:27;;;;;;;2.83;1.55;;;25.00;99.90;;;;;;5131192;27;20164;-54
2022/07/09 09:17:54;;;;;;;3.78;1.90;;;24.90;99.90;;;;;;5131227;27;20247;-54
2022/07/09 09:20:20;;;;;;;2.10;1.73;;;25.00;99.90;;;;;;5129852;28;20167;-54
2022/07/09 09:22:46;;;;;;;2.17;1.60;;;24.90;99.90;;;;;;5131153;28;20175;-54
2022/07/09 09:25:19;;;;;;;3.78;1.85;;;25.10;99.90;;;;;;5131268;28;20164;-54
2022/07/09 09:27:52;;;;;;;4.45;1.73;;;24.80;99.90;;;;;;5129211;27;20211;-54
2022/07/09 09:30:18;;;;;;;3.40;1.90;;;24.80;99.90;;;;;;5131892;27;20168;-54
2022/07/09 09:32:43;;;;;;;2.95;1.52;;;25.20;99.90;;;;;;5134893;27;20670;-54
2022/07/09 09:35:09;;;;;;;1.73;1.40;;;25.40;99.90;;;;;;5135025;27;20163;-54
2022/07/09 09:37:34;;;;;;;2.53;1.20;;;25.60;99.90;;;;;;5134786;27;20155;-54
2022/07/09 09:40:10;;;;;;;1.55;1.30;;;25.90;99.90;;;;;;5134939;27;20171;-54
2022/07/09 09:42:41;;;;;;;1.33;0.93;;;26.00;99.90;;;;;;5134750;27;20753;-54
2022/07/09 09:45:08;;;;;;;1.70;1.20;;;25.50;99.90;;;;;;5134906;27;20182;-55
2022/07/09 09:47:33;;;;;;;1.67;1.17;;;25.60;99.90;;;;;;5133697;27;20175;-54
2022/07/09 09:50:00;;;;;;;3.00;1.50;;;25.40;99.90;;;;;;5135073;27;20167;-54
2022/07/09 09:52:26;;;;;;;4.05;1.20;;;25.60;99.90;;;;;;5134486;27;20217;-54
2022/07/09 09:54:54;;;;;;;3.92;1.63;;;25.80;99.90;;;;;;5134500;27;20651;-54
2022/07/09 09:57:24;;;;;;;7.30;1.75;;;25.50;99.90;;;;;;5134403;27;20625;-54
2022/07/09 09:59:52;;;;;;;2.35;1.25;;;25.20;99.90;;;;;;5134489;27;20175;-54
2022/07/09 10:02:20;;;;;;;3.03;1.30;;;25.10;99.90;;;;;;5134273;27;20259;-54
2022/07/09 10:04:46;;;;;;;1.65;1.30;;;25.00;99.90;;;;;;5134397;27;20682;-54
2022/07/09 10:07:15;;;;;;;5.07;1.20;;;24.80;99.90;;;;;;5134343;27;20199;-53
2022/07/09 10:09:41;;;;;;;2.58;1.30;;;25.00;99.90;;;;;;5134254;27;20167;-54
2022/07/09 10:12:10;;;;;;;3.92;1.40;;;25.60;99.90;;;;;;5134233;27;20202;-54
2022/07/09 10:14:37;;;;;;;2.50;1.27;;;25.70;99.90;;;;;;5134095;27;20225;-54
2022/07/09 10:17:11;;;;;;;4.13;1.73;;;25.70;99.90;;;;;;5134696;27;20524;-54
2022/07/09 10:19:37;;;;;;;2.15;1.27;;;25.60;99.90;;;;;;5134131;27;20224;-54
2022/07/09 10:22:03;;;;;;;1.60;1.50;;;25.80;99.90;;;;;;5134304;27;20164;-54
2022/07/09 10:24:34;;;;;;;1.83;1.50;;;25.80;99.90;;;;;;5134303;27;20576;-54
2022/07/09 10:27:05;;;;;;;3.70;1.60;;;25.80;99.90;;;;;;5134112;27;20211;-54
2022/07/09 10:29:30;;;;;;;2.03;1.42;;;26.10;99.90;;;;;;5134342;27;20167;-54
2022/07/09 10:31:57;;;;;;;2.22;1.48;;;26.10;99.90;;;;;;5134038;27;20553;-54
2022/07/09 10:34:34;;;;;;;1.33;1.23;;;26.40;99.90;;;;;;5133759;27;20257;-54
2022/07/09 10:37:03;;;;;;;2.05;1.42;;;26.60;99.90;;;;;;5134054;27;20167;-55
2022/07/09 10:39:29;;;;;;;1.23;1.13;;;26.60;99.90;;;;;;5133662;27;20159;-54
2022/07/09 10:42:06;;;;;;;1.45;1.35;;;26.60;99.90;;;;;;5132614;27;20168;-54
2022/07/09 10:44:37;;;;;;;2.38;1.50;;;26.60;99.90;;;;;;5133799;27;20213;-54
2022/07/09 10:47:04;;;;;;;3.95;1.40;;;26.00;99.90;;;;;;5133832;27;20641;-53
2022/07/09 10:49:30;;;;;;;1.50;1.40;;;26.00;99.90;;;;;;5132477;27;20167;-54
2022/07/09 10:51:57;;;;;;;2.38;1.40;;;26.30;99.90;;;;;;5133563;27;20168;-54
2022/07/09 10:54:23;;;;;;;2.33;1.30;;;26.50;99.90;;;;;;5133157;27;20549;-54
2022/07/09 10:56:49;;;;;;;2.60;1.30;;;26.10;99.90;;;;;;5133329;27;20211;-53
2022/07/09 10:59:18;;;;;;;1.40;1.30;;;25.90;99.90;;;;;;5133442;27;20617;-54
2022/07/09 11:01:44;;;;;;;2.92;1.40;;;25.80;99.90;;;;;;5133716;27;20160;-53
2022/07/09 11:04:11;;;;;;;4.78;1.70;;;26.00;99.90;;;;;;5133371;27;20280;-53
2022/07/09 11:06:47;;;;;;;3.50;1.50;;;26.70;99.90;;;;;;5133261;27;20240;-54
2022/07/09 11:09:16;;;;;;;1.85;1.70;;;26.40;99.90;;;;;;5133128;27;20625;-53
2022/07/09 11:11:43;;;;;;;3.75;1.40;;;26.60;99.90;;;;;;5132977;27;20568;-54
2022/07/09 11:14:10;;;;;;;4.03;1.80;;;26.30;99.90;;;;;;5131734;27;20304;-54
2022/07/09 11:16:36;;;;;;;3.15;2.05;;;26.00;99.90;;;;;;5131045;27;20164;-54
2022/07/09 11:19:19;;;;;;;5.30;1.85;;;25.90;99.90;;;;;;5132972;27;20182;-54
2022/07/09 11:21:45;;;;;;;4.32;1.88;;;26.10;99.90;;;;;;5132996;27;20163;-54
2022/07/09 11:24:19;;;;;;;6.15;2.03;;;26.00;99.90;;;;;;5133064;27;20168;-54
2022/07/09 11:26:45;;;;;;;5.60;2.10;;;26.10;99.90;;;;;;5132680;27;20215;-54
2022/07/09 11:29:11;;;;;;;1.50;1.40;;;26.40;99.90;;;;;;5132707;27;20667;-54
2022/07/09 11:31:45;;;;;;;2.17;1.85;;;26.70;99.90;;;;;;5131262;27;20179;-54
2022/07/09 11:34:11;;;;;;;2.60;1.83;;;26.90;99.90;;;;;;5132595;27;20190;-54
2022/07/09 11:36:41;;;;;;;3.58;2.30;;;26.90;99.90;;;;;;5132391;27;20663;-54
2022/07/09 11:39:07;;;;;;;5.03;2.25;;;26.70;99.90;;;;;;5132426;27;20163;-54
2022/07/09 11:41:43;;;;;;;2.97;2.20;;;26.30;99.90;;;;;;5132632;27;20170;-54
2022/07/09 11:44:09;;;;;;;4.72;2.35;;;26.20;99.90;;;;;;5132593;27;20223;-54
2022/07/09 11:46:37;;;;;;;3.92;2.10;;;26.20;99.90;;;;;;5132288;27;20187;-54
2022/07/09 11:49:13;;;;;;;4.95;2.30;;;26.60;99.90;;;;;;5132541;27;20156;-54
2022/07/09 11:51:39;;;;;;;6.30;2.15;;;26.90;99.90;;;;;;5132343;27;20163;-54
2022/07/09 11:54:05;;;;;;;2.83;2.15;;;26.80;99.90;;;;;;5132233;27;20214;-54
2022/07/09 11:56:44;;;;;;;2.13;1.90;;;26.90;99.90;;;;;;5132698;27;20632;-54
2022/07/09 11:59:09;;;;;;;3.50;1.80;;;26.90;99.90;;;;;;5130731;27;20651;-54
2022/07/09 12:01:36;;;;;;;3.38;2.20;;;27.00;99.90;;;;;;5132116;27;20163;-54
2022/07/09 12:04:01;;;;;;;3.25;2.70;;;26.80;99.90;;;;;;5132392;27;20163;-54
2022/07/09 12:06:27;;;;;;;4.35;2.30;;;26.50;99.90;;;;;;5131906;27;20232;-54
2022/07/09 12:09:00;;;;;;;2.30;2.15;;;26.70;99.90;;;;;;5131951;27;20242;-54
2022/07/09 12:11:27;;;;;;;4.60;2.55;;;26.50;99.90;;;;;;5132161;27;20171;-54
2022/07/09 12:13:53;;;;;;;5.95;2.63;;;26.60;99.90;;;;;;5131845;27;20228;-54
2022/07/09 12:16:18;;;;;;;3.20;2.38;;;26.80;99.90;;;;;;5131828;27;20167;-54
2022/07/09 12:18:44;;;;;;;3.55;2.65;;;26.70;99.90;;;;;;5131784;27;20179;-54
2022/07/09 12:21:10;;;;;;;3.30;2.50;;;26.80;99.90;;;;;;5131894;27;20167;-54
2022/07/09 12:23:36;;;;;;;5.05;3.28;;;27.20;99.90;;;;;;5131733;27;20216;-54
2022/07/09 12:26:01;;;;;;;3.28;2.58;;;27.20;99.90;;;;;;5132055;27;20226;-54
2022/07/09 12:28:27;;;;;;;3.35;3.05;;;27.10;99.90;;;;;;5131855;27;20244;-54
2022/07/09 12:30:52;;;;;;;5.00;2.88;;;26.90;99.90;;;;;;5131687;27;20687;-54
2022/07/09 12:33:18;;;;;;;3.85;2.60;;;27.00;99.90;;;;;;5124355;27;20207;-55
2022/07/09 12:35:44;;;;;;;7.68;2.55;;;26.60;99.90;;;;;;5115244;28;20208;-54
2022/07/09 12:38:09;;;;;;;2.80;2.42;;;26.30;99.90;;;;;;5119985;28;20248;-54
2022/07/09 12:40:35;;;;;;;5.53;2.75;;;25.80;99.90;;;;;;5110890;28;20640;-54